createdAt,value
2022-09-06T00:01:14.720Z,90.27
2022-09-06T00:03:43.636Z,90.36
2022-09-06T00:06:14.729Z,90.38
2022-09-06T00:08:45.907Z,90.48
2022-09-06T00:11:15.199Z,90.40
2022-09-06T00:13:45.044Z,90.90
2022-09-06T00:16:16.272Z,90.73
2022-09-06T00:18:45.498Z,91.02
2022-09-06T00:21:21.240Z,91.42
2022-09-06T00:23:51.807Z,91.92
2022-09-06T00:26:21.766Z,91.57
2022-09-06T00:28:50.853Z,91.97
2022-09-06T00:31:21.102Z,91.76
2022-09-06T00:33:50.152Z,91.90
2022-09-06T00:36:19.128Z,92.05
2022-09-06T00:38:47.978Z,93.20
2022-09-06T00:41:19.333Z,92.53
2022-09-06T00:43:48.237Z,92.61
2022-09-06T00:46:19.345Z,93.45
2022-09-06T00:48:49.969Z,93.52
2022-09-06T00:51:19.472Z,92.71
2022-09-06T00:53:48.034Z,92.74
2022-09-06T00:56:18.391Z,92.33
2022-09-06T00:58:48.240Z,92.85
2022-09-06T01:01:17.711Z,92.98
2022-09-06T01:03:46.692Z,92.98
2022-09-06T01:06:24.765Z,93.65
2022-09-06T01:09:03.381Z,93.00
2022-09-06T01:11:51.137Z,93.90
2022-09-06T01:14:32.730Z,94.00
2022-09-06T01:17:08.789Z,93.06
2022-09-06T01:20:05.626Z,94.23
2022-09-06T01:23:05.793Z,95.12
2022-09-06T01:25:45.060Z,93.30
2022-09-06T01:28:29.264Z,94.40
2022-09-06T01:31:06.979Z,93.92
2022-09-06T01:33:43.525Z,93.64
2022-09-06T01:36:18.172Z,94.09
2022-09-06T01:38:46.821Z,93.49
2022-09-06T01:41:15.755Z,94.49
2022-09-06T01:43:49.913Z,94.54
2022-09-06T01:46:27.327Z,94.83
2022-09-06T01:49:16.664Z,95.87
2022-09-06T01:51:59.693Z,95.66
2022-09-06T01:54:42.867Z,95.53
2022-09-06T01:57:24.079Z,95.76
2022-09-06T02:00:06.488Z,95.77
2022-09-06T02:03:05.357Z,96.54
2022-09-06T02:05:40.643Z,95.90
2022-09-06T02:08:14.219Z,95.94
2022-09-06T02:10:47.399Z,96.11
2022-09-06T02:13:18.761Z,97.06
2022-09-06T02:15:55.023Z,96.30
2022-09-06T02:18:29.841Z,96.12
2022-09-06T02:21:00.613Z,96.29
2022-09-06T02:23:34.952Z,96.34
2022-09-06T02:26:09.957Z,96.03
2022-09-06T02:28:38.485Z,96.12
2022-09-06T02:31:14.262Z,96.48
2022-09-06T02:33:47.133Z,95.58
2022-09-06T02:36:16.902Z,96.23
2022-09-06T02:38:46.879Z,96.88
2022-09-06T02:41:19.545Z,96.71
2022-09-06T02:43:48.132Z,96.19
2022-09-06T02:46:18.093Z,96.19
2022-09-06T02:48:47.104Z,96.59
2022-09-06T02:51:15.555Z,96.25
2022-09-06T02:53:44.166Z,96.47
2022-09-06T02:56:13.326Z,96.59
2022-09-06T02:58:41.839Z,96.64
2022-09-06T03:01:10.629Z,97.13
2022-09-06T03:03:41.013Z,96.46
2022-09-06T03:06:12.358Z,96.84
2022-09-06T03:08:40.861Z,97.49
2022-09-06T03:11:09.326Z,97.04
2022-09-06T03:13:38.048Z,98.02
2022-09-06T03:16:06.803Z,97.94
2022-09-06T03:18:35.856Z,98.06
2022-09-06T03:21:07.627Z,99.10
2022-09-06T03:23:36.271Z,98.77
2022-09-06T03:26:04.892Z,99.18
2022-09-06T03:28:33.730Z,98.71
2022-09-06T03:31:02.426Z,98.51
2022-09-06T03:33:33.664Z,98.87
2022-09-06T03:36:04.498Z,98.51
2022-09-06T03:38:34.897Z,98.79
2022-09-06T03:41:04.001Z,99.18
2022-09-06T03:43:33.064Z,99.37
2022-09-06T03:46:02.650Z,99.23
2022-09-06T03:48:31.480Z,100.00
2022-09-06T03:51:00.782Z,99.82
2022-09-06T03:53:30.896Z,100.00
2022-09-06T03:56:01.808Z,99.63
2022-09-06T03:58:32.596Z,99.68
2022-09-06T04:01:04.640Z,99.63
2022-09-06T04:03:33.715Z,98.80
2022-09-06T04:06:03.163Z,99.31
2022-09-06T04:08:32.465Z,99.22
2022-09-06T04:11:03.105Z,99.77
2022-09-06T04:13:32.790Z,98.86
2022-09-06T04:16:01.835Z,99.04
2022-09-06T04:18:31.016Z,99.54
2022-09-06T04:20:59.885Z,99.93
2022-09-06T04:23:35.239Z,99.60
2022-09-06T04:26:08.129Z,100.00
2022-09-06T04:28:37.287Z,100.00
2022-09-06T04:31:07.988Z,100.00
2022-09-06T04:33:38.754Z,99.97
2022-09-06T04:36:09.736Z,99.73
2022-09-06T04:38:42.240Z,100.00
2022-09-06T04:41:13.340Z,99.83
2022-09-06T04:43:41.952Z,98.86
2022-09-06T04:46:15.889Z,99.02
2022-09-06T04:48:44.626Z,99.33
2022-09-06T04:51:13.060Z,98.65
2022-09-06T04:53:42.311Z,99.27
2022-09-06T04:56:18.061Z,99.00
2022-09-06T04:58:48.614Z,99.41
2022-09-06T05:01:18.387Z,99.64
2022-09-06T05:03:47.525Z,98.96
2022-09-06T05:06:22.032Z,98.80
2022-09-06T05:08:50.593Z,98.83
2022-09-06T05:11:21.613Z,97.88
2022-09-06T05:13:50.772Z,98.19
2022-09-06T05:16:19.952Z,98.15
2022-09-06T05:18:49.121Z,97.70
2022-09-06T05:21:17.718Z,97.16
2022-09-06T05:23:47.265Z,96.44
2022-09-06T05:26:18.317Z,96.24
2022-09-06T05:28:48.249Z,95.58
2022-09-06T05:31:27.870Z,95.86
2022-09-06T05:33:57.608Z,95.21
2022-09-06T05:36:28.112Z,95.03
2022-09-06T05:38:58.030Z,94.37
2022-09-06T05:41:27.657Z,93.84
2022-09-06T05:43:57.760Z,94.04
2022-09-06T05:46:27.436Z,94.04
2022-09-06T05:49:01.514Z,93.59
2022-09-06T05:51:30.323Z,93.85
2022-09-06T05:53:58.910Z,92.86
2022-09-06T05:56:27.539Z,92.71
2022-09-06T05:58:57.705Z,92.73
2022-09-06T06:01:28.217Z,92.09
2022-09-06T06:03:59.144Z,91.30
2022-09-06T06:06:29.583Z,91.09
2022-09-06T06:08:58.962Z,91.03
2022-09-06T06:11:29.767Z,90.10
2022-09-06T06:14:00.202Z,89.19
2022-09-06T06:16:29.371Z,88.53
2022-09-06T06:18:57.763Z,88.47
2022-09-06T06:21:28.569Z,87.45
2022-09-06T06:23:59.637Z,87.43
2022-09-06T06:26:30.127Z,86.94
2022-09-06T06:29:02.325Z,86.61
2022-09-06T06:31:31.910Z,85.98
2022-09-06T06:34:03.369Z,85.37
2022-09-06T06:36:34.790Z,85.15
2022-09-06T06:39:05.495Z,84.19
2022-09-06T06:41:34.722Z,84.05
2022-09-06T06:44:06.587Z,83.94
2022-09-06T06:46:37.336Z,83.00
2022-09-06T06:49:06.657Z,82.60
2022-09-06T06:51:37.484Z,82.06
2022-09-06T06:54:06.737Z,81.37
2022-09-06T06:56:37.044Z,80.94
2022-09-06T06:59:08.624Z,80.12
2022-09-06T07:01:37.884Z,78.87
2022-09-06T07:04:08.837Z,78.18
2022-09-06T07:12:27.209Z,76.55
2022-09-06T07:14:57.625Z,75.53
2022-09-06T07:17:26.354Z,75.38
2022-09-06T07:22:44.381Z,73.84
2022-09-06T07:25:16.506Z,73.19
2022-09-06T07:27:50.207Z,72.60
2022-09-06T07:30:21.697Z,71.78
2022-09-06T07:32:50.620Z,71.81
2022-09-06T07:35:20.612Z,70.81
2022-09-06T07:37:56.665Z,70.27
2022-09-06T07:40:25.741Z,69.80
2022-09-06T07:42:54.734Z,68.74
2022-09-06T07:45:25.224Z,68.21
2022-09-06T07:47:59.207Z,67.80
2022-09-06T07:50:47.522Z,67.61
2022-09-06T07:53:25.981Z,66.82
2022-09-06T07:55:58.219Z,66.41
2022-09-06T07:58:27.167Z,64.96
2022-09-06T08:01:16.624Z,63.38
2022-09-06T08:03:47.916Z,64.88
2022-09-06T08:06:20.787Z,64.11
2022-09-06T08:11:31.285Z,61.91
2022-09-06T08:14:01.467Z,62.41
2022-09-06T08:16:32.756Z,61.38
2022-09-06T08:19:02.564Z,56.47
2022-09-06T08:21:33.128Z,60.70
2022-09-06T08:24:03.134Z,59.75
2022-09-06T08:26:33.633Z,60.33
2022-09-06T08:29:03.824Z,59.31
2022-09-06T08:31:39.742Z,57.98
2022-09-06T08:34:09.606Z,58.40
2022-09-06T08:36:38.489Z,56.67
2022-09-06T08:39:09.446Z,55.93
2022-09-06T08:41:50.194Z,53.91
2022-09-06T08:47:14.397Z,49.35
2022-09-06T08:49:45.311Z,55.32
2022-09-06T08:52:45.400Z,52.88
2022-09-06T08:55:32.405Z,51.49
2022-09-06T08:58:17.298Z,52.61
2022-09-06T09:00:51.500Z,52.17
2022-09-06T09:03:25.814Z,52.25
2022-09-06T09:05:55.384Z,52.62
2022-09-06T09:08:30.714Z,51.91
2022-09-06T09:11:03.359Z,51.38
2022-09-06T09:13:36.472Z,51.18
2022-09-06T09:16:06.500Z,50.23
2022-09-06T09:18:41.310Z,48.66
2022-09-06T09:21:11.548Z,49.30
2022-09-06T09:23:40.500Z,50.17
2022-09-06T09:26:14.353Z,47.19
2022-09-06T09:29:03.911Z,45.94
2022-09-06T09:31:37.308Z,48.35
2022-09-06T09:34:11.681Z,46.33
2022-09-06T09:36:41.427Z,47.70
2022-09-06T09:39:11.804Z,47.54
2022-09-06T09:41:44.456Z,45.89
2022-09-06T09:44:20.227Z,44.46
2022-09-06T09:46:49.899Z,45.55
2022-09-06T09:49:30.733Z,42.50
2022-09-06T09:52:07.767Z,42.75
2022-09-06T09:54:41.823Z,44.09
2022-09-06T09:57:12.200Z,44.25
2022-09-06T09:59:46.401Z,41.47
2022-09-06T10:02:22.470Z,43.33
2022-09-06T10:05:00.838Z,42.48
2022-09-06T10:07:29.996Z,43.35
2022-09-06T10:10:01.353Z,43.91
2022-09-06T10:12:30.681Z,40.34
2022-09-06T10:15:02.427Z,42.92
2022-09-06T10:17:35.479Z,42.89
2022-09-06T10:20:10.866Z,42.44
2022-09-06T10:22:52.020Z,41.53
2022-09-06T10:25:39.708Z,39.08
2022-09-06T10:28:30.116Z,38.30
2022-09-06T10:31:27.447Z,37.39
2022-09-06T10:34:08.253Z,39.44
2022-09-06T10:36:41.575Z,40.24
2022-09-06T10:39:20.239Z,39.77
2022-09-06T10:41:59.262Z,39.00
2022-09-06T10:44:47.250Z,40.68
2022-09-06T10:47:18.682Z,44.69
2022-09-06T10:49:52.261Z,43.67
2022-09-06T10:52:26.943Z,41.95
2022-09-06T10:55:02.285Z,41.54
2022-09-06T11:00:25.710Z,40.20
2022-09-06T11:05:54.935Z,40.12
2022-09-06T11:08:46.765Z,38.11
2022-09-06T11:11:23.396Z,38.52
2022-09-06T11:13:52.241Z,39.09
2022-09-06T11:16:26.757Z,38.92
2022-09-06T11:19:00.182Z,38.89
2022-09-06T11:22:04.062Z,36.73
2022-09-06T11:24:50.114Z,36.49
2022-09-06T11:27:27.089Z,35.91
2022-09-06T11:29:57.672Z,37.60
2022-09-06T11:32:34.376Z,36.54
2022-09-06T11:35:07.453Z,37.69
2022-09-06T11:37:39.907Z,37.56
2022-09-06T11:43:20.329Z,34.41
2022-09-06T11:45:51.355Z,36.79
2022-09-06T11:48:58.321Z,34.16
2022-09-06T11:51:36.473Z,34.12
2022-09-06T11:54:18.394Z,37.27
2022-09-06T11:56:56.238Z,35.67
2022-09-06T11:59:44.691Z,34.42
2022-09-06T12:02:33.099Z,33.02
2022-09-06T12:05:29.395Z,34.07
2022-09-06T12:08:29.386Z,33.19
2022-09-06T12:11:27.070Z,32.38
2022-09-06T12:14:03.768Z,35.20
2022-09-06T12:17:26.295Z,31.93
2022-09-06T12:19:55.838Z,30.43
2022-09-06T12:22:53.151Z,33.06
2022-09-06T12:26:08.196Z,32.67
2022-09-06T12:28:45.359Z,35.40
2022-09-06T12:31:36.194Z,33.86
2022-09-06T12:34:13.106Z,35.37
2022-09-06T12:36:52.470Z,34.67
2022-09-06T12:39:22.516Z,36.61
2022-09-06T12:41:55.181Z,36.52
2022-09-06T12:44:31.917Z,33.58
2022-09-06T12:47:07.797Z,35.11
2022-09-06T12:49:38.656Z,35.43
2022-09-06T12:52:12.994Z,35.45
2022-09-06T12:54:50.463Z,34.18
2022-09-06T12:57:21.658Z,34.46
2022-09-06T12:59:53.912Z,34.62
2022-09-06T13:02:31.835Z,34.00
2022-09-06T13:05:06.800Z,33.40
2022-09-06T13:07:42.752Z,33.32
2022-09-06T13:10:14.002Z,34.26
2022-09-06T13:12:46.251Z,35.14
2022-09-06T13:15:20.210Z,34.57
2022-09-06T13:17:50.736Z,35.05
2022-09-06T13:20:26.905Z,34.19
2022-09-06T13:23:06.854Z,35.08
2022-09-06T13:25:36.019Z,34.87
2022-09-06T13:28:05.306Z,34.70
2022-09-06T13:30:37.996Z,34.07
2022-09-06T13:33:10.356Z,34.44
2022-09-06T13:35:39.889Z,33.86
2022-09-06T13:38:23.142Z,33.13
2022-09-06T13:41:10.960Z,34.65
2022-09-06T13:43:46.467Z,34.60
2022-09-06T13:46:16.511Z,34.73
2022-09-06T13:48:46.886Z,34.35
2022-09-06T13:51:15.930Z,34.71
2022-09-06T13:53:45.176Z,34.91
2022-09-06T13:56:14.257Z,34.88
2022-09-06T13:58:45.349Z,34.70
2022-09-06T14:01:15.029Z,34.64
2022-09-06T14:03:44.859Z,34.46
2022-09-06T14:06:15.377Z,35.27
2022-09-06T14:09:06.001Z,34.82
2022-09-06T14:11:33.728Z,35.22
2022-09-06T14:14:02.618Z,35.39
2022-09-06T14:16:32.076Z,34.83
2022-09-06T14:19:00.601Z,35.54
2022-09-06T14:21:30.774Z,35.44
2022-09-06T14:24:03.908Z,35.27
2022-09-06T14:26:34.269Z,35.64
2022-09-06T14:29:03.304Z,36.27
2022-09-06T14:31:34.038Z,36.32
2022-09-06T14:34:04.308Z,36.76
2022-09-06T14:36:35.450Z,37.13
2022-09-06T14:39:05.888Z,36.78
2022-09-06T14:41:36.558Z,37.30
2022-09-06T14:44:10.261Z,37.30
2022-09-06T14:46:42.829Z,38.01
2022-09-06T14:49:12.698Z,38.51
2022-09-06T14:51:43.513Z,39.26
2022-09-06T14:54:14.743Z,39.42
2022-09-06T14:56:44.362Z,40.02
2022-09-06T14:59:13.709Z,40.68
2022-09-06T15:01:42.970Z,40.85
2022-09-06T15:04:12.357Z,41.43
2022-09-06T15:06:47.362Z,42.23
2022-09-06T15:09:16.488Z,42.07
2022-09-06T15:11:48.023Z,42.56
2022-09-06T15:14:18.999Z,43.04
2022-09-06T15:16:55.919Z,43.24
2022-09-06T15:19:27.467Z,44.17
2022-09-06T15:21:58.567Z,44.55
2022-09-06T15:24:27.455Z,44.51
2022-09-06T15:26:56.402Z,44.41
2022-09-06T15:29:25.264Z,44.34
2022-09-06T15:31:54.841Z,43.93
2022-09-06T15:34:26.955Z,44.15
2022-09-06T15:37:00.443Z,44.29
2022-09-06T15:39:28.999Z,44.72
2022-09-06T15:41:58.384Z,44.97
2022-09-06T15:44:27.205Z,44.59
2022-09-06T15:47:00.454Z,45.13
2022-09-06T15:49:32.341Z,45.68
2022-09-06T15:52:03.975Z,45.97
2022-09-06T15:54:50.222Z,46.21
2022-09-06T15:57:20.019Z,46.31
2022-09-06T15:59:49.354Z,46.85
2022-09-06T16:02:20.329Z,47.00
2022-09-06T16:04:49.119Z,47.68
2022-09-06T16:07:19.877Z,47.85
2022-09-06T16:09:48.906Z,48.29
2022-09-06T16:12:17.760Z,48.65
2022-09-06T16:14:47.144Z,49.27
2022-09-06T16:17:15.970Z,49.11
2022-09-06T16:19:45.683Z,48.83
2022-09-06T16:22:15.297Z,49.22
2022-09-06T16:24:46.147Z,49.33
2022-09-06T16:27:14.988Z,49.41
2022-09-06T16:29:45.521Z,49.21
2022-09-06T16:32:14.448Z,49.57
2022-09-06T16:34:43.002Z,50.00
2022-09-06T16:37:11.644Z,49.60
2022-09-06T16:39:40.443Z,50.57
2022-09-06T16:42:11.417Z,50.61
2022-09-06T16:44:40.382Z,50.58
2022-09-06T16:47:11.659Z,50.90
2022-09-06T16:49:42.452Z,51.55
2022-09-06T16:52:11.313Z,51.90
2022-09-06T16:54:40.190Z,52.09
2022-09-06T16:57:08.736Z,52.72
2022-09-06T16:59:38.779Z,53.17
2022-09-06T17:02:07.814Z,53.32
2022-09-06T17:04:37.413Z,53.80
2022-09-06T17:07:06.275Z,53.69
2022-09-06T17:09:35.572Z,54.35
2022-09-06T17:12:05.089Z,54.95
2022-09-06T17:14:33.792Z,55.57
2022-09-06T17:17:05.704Z,56.09
2022-09-06T17:19:40.707Z,57.62
2022-09-06T17:22:11.304Z,57.40
2022-09-06T17:24:40.669Z,57.35
2022-09-06T17:27:10.645Z,57.38
2022-09-06T17:29:40.302Z,57.79
2022-09-06T17:32:11.177Z,57.99
2022-09-06T17:34:40.346Z,57.74
2022-09-06T17:37:09.328Z,58.02
2022-09-06T17:39:38.039Z,58.25
2022-09-06T17:42:07.570Z,58.62
2022-09-06T17:44:36.285Z,58.08
2022-09-06T17:47:12.938Z,58.43
2022-09-06T17:49:44.008Z,58.62
2022-09-06T17:52:13.780Z,58.46
2022-09-06T17:54:42.553Z,58.85
2022-09-06T17:57:11.053Z,58.71
2022-09-06T17:59:39.621Z,58.98
2022-09-06T18:02:09.014Z,58.56
2022-09-06T18:04:37.912Z,59.19
2022-09-06T18:07:07.796Z,58.97
2022-09-06T18:09:37.146Z,58.95
2022-09-06T18:12:06.996Z,59.22
2022-09-06T18:14:35.647Z,59.10
2022-09-06T18:17:05.001Z,59.46
2022-09-06T18:19:33.694Z,59.56
2022-09-06T18:22:02.547Z,59.84
2022-09-06T18:24:32.893Z,59.86
2022-09-06T18:27:03.261Z,60.17
2022-09-06T18:29:31.693Z,60.09
2022-09-06T18:32:00.591Z,60.09
2022-09-06T18:34:29.086Z,60.16
2022-09-06T18:36:57.562Z,60.43
2022-09-06T18:39:26.575Z,60.43
2022-09-06T18:42:04.161Z,61.53
2022-09-06T18:44:34.342Z,61.53
2022-09-06T18:47:05.810Z,61.50
2022-09-06T18:49:35.038Z,63.75
2022-09-06T18:52:04.570Z,62.29
2022-09-06T18:54:34.098Z,62.65
2022-09-06T18:57:04.454Z,63.04
2022-09-06T18:59:33.501Z,63.67
2022-09-06T19:02:02.049Z,64.42
2022-09-06T19:04:33.642Z,65.13
2022-09-06T19:07:03.058Z,67.49
2022-09-06T19:09:31.903Z,65.46
2022-09-06T19:12:02.160Z,66.13
2022-09-06T19:14:33.792Z,66.30
2022-09-06T19:17:02.929Z,66.00
2022-09-06T19:19:31.801Z,66.05
2022-09-06T19:22:00.502Z,65.72
2022-09-06T19:24:29.154Z,66.27
2022-09-06T19:26:57.889Z,66.31
2022-09-06T19:29:27.724Z,66.70
2022-09-06T19:31:57.744Z,66.70
2022-09-06T19:34:27.091Z,67.26
2022-09-06T19:36:57.530Z,67.27
2022-09-06T19:39:32.366Z,67.27
2022-09-06T19:42:03.620Z,67.81
2022-09-06T19:44:32.717Z,67.90
2022-09-06T19:47:03.061Z,68.24
2022-09-06T19:49:31.960Z,67.71
2022-09-06T19:52:01.923Z,68.52
2022-09-06T19:54:30.548Z,68.39
2022-09-06T19:57:00.633Z,68.60
2022-09-06T19:59:29.598Z,69.15
2022-09-06T20:01:58.026Z,68.65
2022-09-06T20:04:29.611Z,68.96
2022-09-06T20:06:58.289Z,69.18
2022-09-06T20:09:26.827Z,69.92
2022-09-06T20:11:55.298Z,70.20
2022-09-06T20:14:24.617Z,70.64
2022-09-06T20:16:53.458Z,71.17
2022-09-06T20:19:22.018Z,71.34
2022-09-06T20:21:52.435Z,72.43
2022-09-06T20:24:21.348Z,72.23
2022-09-06T20:26:52.465Z,72.36
2022-09-06T20:29:21.608Z,72.87
2022-09-06T20:31:50.457Z,72.61
2022-09-06T20:34:19.792Z,72.69
2022-09-06T20:36:49.400Z,72.82
2022-09-06T20:39:19.307Z,73.02
2022-09-06T20:41:47.723Z,73.08
2022-09-06T20:44:16.613Z,73.48
2022-09-06T20:46:45.245Z,73.01
2022-09-06T20:49:15.934Z,73.08
2022-09-06T20:51:44.496Z,72.84
2022-09-06T20:54:14.125Z,73.00
2022-09-06T20:56:44.425Z,73.66
2022-09-06T20:59:14.397Z,73.59
2022-09-06T21:01:44.830Z,73.66
2022-09-06T21:04:15.757Z,74.33
2022-09-06T21:06:45.949Z,73.94
2022-09-06T21:09:16.105Z,75.05
2022-09-06T21:11:46.607Z,75.07
2022-09-06T21:14:15.356Z,75.08
2022-09-06T21:16:43.881Z,75.36
2022-09-06T21:19:13.619Z,75.79
2022-09-06T21:21:42.640Z,76.33
2022-09-06T21:24:12.301Z,75.49
2022-09-06T21:26:43.051Z,76.28
2022-09-06T21:29:13.308Z,76.60
2022-09-06T21:31:41.713Z,77.01
2022-09-06T21:34:16.881Z,76.63
2022-09-06T21:36:46.146Z,77.25
2022-09-06T21:39:16.377Z,77.09
2022-09-06T21:41:46.668Z,77.72
2022-09-06T21:44:16.597Z,77.84
2022-09-06T21:46:45.185Z,77.41
2022-09-06T21:49:15.117Z,78.14
2022-09-06T21:51:44.086Z,78.57
2022-09-06T21:54:12.694Z,79.14
2022-09-06T21:56:41.724Z,79.25
2022-09-06T21:59:11.275Z,78.80
2022-09-06T22:01:43.934Z,79.35
2022-09-06T22:04:14.257Z,79.22
2022-09-06T22:06:43.088Z,78.87
2022-09-06T22:09:13.505Z,79.16
2022-09-06T22:11:44.472Z,78.93
2022-09-06T22:14:15.365Z,79.79
2022-09-06T22:16:45.226Z,79.47
2022-09-06T22:19:15.473Z,79.56
2022-09-06T22:21:43.949Z,80.04
2022-09-06T22:24:14.410Z,80.02
2022-09-06T22:26:43.631Z,79.95
2022-09-06T22:29:15.648Z,80.20
2022-09-06T22:31:46.292Z,79.99
2022-09-06T22:34:14.927Z,80.23
2022-09-06T22:36:43.850Z,80.19
2022-09-06T22:39:12.439Z,80.56
2022-09-06T22:41:41.282Z,80.74
2022-09-06T22:44:09.645Z,81.31
2022-09-06T22:46:40.121Z,81.73
2022-09-06T22:49:10.125Z,81.71
2022-09-06T22:51:39.054Z,81.74
2022-09-06T22:54:07.699Z,82.51
2022-09-06T22:56:36.552Z,82.43
2022-09-06T22:59:06.610Z,82.60
2022-09-06T23:01:39.321Z,83.22
2022-09-06T23:04:11.187Z,83.13
2022-09-06T23:06:39.604Z,83.30
2022-09-06T23:09:09.205Z,82.76
2022-09-06T23:11:37.702Z,82.85
2022-09-06T23:14:06.260Z,83.54
2022-09-06T23:16:34.820Z,82.68
2022-09-06T23:19:04.095Z,83.18
2022-09-06T23:21:34.302Z,83.24
2022-09-06T23:24:03.054Z,83.16
2022-09-06T23:26:33.240Z,82.84
2022-09-06T23:29:02.328Z,83.53
2022-09-06T23:31:32.677Z,83.12
2022-09-06T23:34:02.582Z,83.88
2022-09-06T23:36:31.370Z,83.16
2022-09-06T23:39:02.260Z,82.97
2022-09-06T23:41:31.124Z,82.59
2022-09-06T23:44:00.561Z,82.77
2022-09-06T23:46:29.601Z,83.31
2022-09-06T23:48:59.430Z,83.67
2022-09-06T23:51:27.820Z,83.80
2022-09-06T23:53:56.462Z,83.57
2022-09-06T23:56:26.235Z,84.36
2022-09-06T23:58:55.215Z,84.38
